createdAt,value
2018-08-17T00:00:56.043Z,3.10
2018-08-17T00:03:25.162Z,2.80
2018-08-17T00:05:54.241Z,3.10
2018-08-17T00:08:23.341Z,2.83
2018-08-17T00:10:52.549Z,3.00
2018-08-17T00:13:21.639Z,3.00
2018-08-17T00:15:50.717Z,3.40
2018-08-17T00:18:19.870Z,3.00
2018-08-17T00:20:48.860Z,3.00
2018-08-17T00:23:17.936Z,2.53
2018-08-17T00:25:47.105Z,2.87
2018-08-17T00:28:16.371Z,2.93
2018-08-17T00:30:45.602Z,2.90
2018-08-17T00:33:14.695Z,3.40
2018-08-17T00:35:43.819Z,3.00
2018-08-17T00:38:12.870Z,2.90
2018-08-17T00:40:41.999Z,2.67
2018-08-17T00:43:11.091Z,2.57
2018-08-17T00:45:40.179Z,3.10
2018-08-17T00:48:09.532Z,2.90
2018-08-17T00:50:38.801Z,2.73
2018-08-17T00:53:07.943Z,3.03
2018-08-17T00:55:37.072Z,3.00
2018-08-17T00:58:06.185Z,3.13
2018-08-17T01:00:35.544Z,3.33
2018-08-17T01:03:04.628Z,3.20
2018-08-17T01:05:33.697Z,2.97
2018-08-17T01:08:02.751Z,3.33
2018-08-17T01:10:31.871Z,2.50
2018-08-17T01:13:00.975Z,2.90
2018-08-17T01:15:30.030Z,3.90
2018-08-17T01:17:59.059Z,3.40
2018-08-17T01:20:28.111Z,2.97
2018-08-17T01:22:57.188Z,2.90
2018-08-17T01:25:26.320Z,3.50
2018-08-17T01:27:55.399Z,3.37
2018-08-17T01:30:24.518Z,3.10
2018-08-17T01:32:53.591Z,3.00
2018-08-17T01:35:22.679Z,3.03
2018-08-17T01:37:51.677Z,3.63
2018-08-17T01:40:20.825Z,3.00
2018-08-17T01:42:49.881Z,3.70
2018-08-17T01:45:18.871Z,2.80
2018-08-17T01:47:47.983Z,3.23
2018-08-17T01:50:17.283Z,3.30
2018-08-17T01:52:46.371Z,2.97
2018-08-17T01:55:15.485Z,3.10
2018-08-17T01:57:44.556Z,3.47
2018-08-17T02:00:13.695Z,2.90
2018-08-17T02:02:43.255Z,3.13
2018-08-17T02:05:12.475Z,3.13
2018-08-17T02:07:41.593Z,3.10
2018-08-17T02:10:11.812Z,3.70
2018-08-17T02:12:40.883Z,3.20
2018-08-17T02:15:09.967Z,3.00
2018-08-17T02:17:39.139Z,3.10
2018-08-17T02:20:08.301Z,2.97
2018-08-17T02:22:37.374Z,2.87
2018-08-17T02:25:06.505Z,3.60
2018-08-17T02:27:35.587Z,3.83
2018-08-17T02:30:05.492Z,3.10
2018-08-17T02:32:34.478Z,4.07
2018-08-17T02:35:03.569Z,3.73
2018-08-17T02:37:32.640Z,4.10
2018-08-17T02:40:01.962Z,4.00
2018-08-17T02:42:31.067Z,4.50
2018-08-17T02:45:00.159Z,4.57
2018-08-17T02:47:29.218Z,3.83
2018-08-17T02:49:58.291Z,3.07
2018-08-17T02:52:27.437Z,4.33
2018-08-17T02:54:56.503Z,3.73
2018-08-17T02:57:25.635Z,3.90
2018-08-17T02:59:54.740Z,3.80
2018-08-17T03:02:23.827Z,3.20
2018-08-17T03:04:54.559Z,3.90
2018-08-17T03:07:23.673Z,4.27
2018-08-17T03:09:52.847Z,3.73
2018-08-17T03:12:21.939Z,3.80
2018-08-17T03:14:51.007Z,3.40
2018-08-17T03:17:20.098Z,4.03
2018-08-17T03:19:49.119Z,3.60
2018-08-17T03:22:18.241Z,3.60
2018-08-17T03:24:47.308Z,3.63
2018-08-17T03:27:16.424Z,3.53
2018-08-17T03:29:45.529Z,3.03
2018-08-17T03:32:14.511Z,3.80
2018-08-17T03:34:43.788Z,3.20
2018-08-17T03:37:12.954Z,2.83
2018-08-17T03:39:42.235Z,3.10
2018-08-17T03:42:11.401Z,3.47
2018-08-17T03:44:40.568Z,3.53
2018-08-17T03:47:09.747Z,3.73
2018-08-17T03:49:38.995Z,3.60
2018-08-17T03:52:08.107Z,2.63
2018-08-17T03:54:37.180Z,3.53
2018-08-17T03:57:06.278Z,3.20
2018-08-17T03:59:35.391Z,3.27
2018-08-17T04:02:04.487Z,2.73
2018-08-17T04:04:33.552Z,2.60
2018-08-17T04:07:02.679Z,3.07
2018-08-17T04:09:31.767Z,2.80
2018-08-17T04:12:00.860Z,3.17
2018-08-17T04:14:29.860Z,2.80
2018-08-17T04:16:58.972Z,2.93
2018-08-17T04:19:28.052Z,2.80
2018-08-17T04:21:57.248Z,2.47
2018-08-17T04:24:26.319Z,2.80
2018-08-17T04:26:55.388Z,3.03
2018-08-17T04:29:24.707Z,2.60
2018-08-17T04:31:53.831Z,2.63
2018-08-17T04:34:22.840Z,2.53
2018-08-17T04:36:51.832Z,2.73
2018-08-17T04:39:20.882Z,2.67
2018-08-17T04:41:50.028Z,2.77
2018-08-17T04:44:19.009Z,2.33
2018-08-17T04:46:48.134Z,2.40
2018-08-17T04:49:17.218Z,2.40
2018-08-17T04:51:46.386Z,2.57
2018-08-17T04:54:15.392Z,2.53
2018-08-17T04:56:44.530Z,2.63
2018-08-17T04:59:13.573Z,2.30
2018-08-17T05:01:42.800Z,2.27
2018-08-17T05:04:11.877Z,2.43
2018-08-17T05:06:40.849Z,2.30
2018-08-17T05:09:09.954Z,2.63
2018-08-17T05:11:39.056Z,2.47
2018-08-17T05:14:08.048Z,2.30
2018-08-17T05:16:37.124Z,1.90
2018-08-17T05:19:06.335Z,2.13
2018-08-17T05:21:35.479Z,2.00
2018-08-17T05:24:04.652Z,2.03
2018-08-17T05:26:33.666Z,2.27
2018-08-17T05:29:02.838Z,2.53
2018-08-17T05:31:31.930Z,2.43
2018-08-17T05:34:01.232Z,2.50
2018-08-17T05:36:30.340Z,2.43
2018-08-17T05:38:59.412Z,2.77
2018-08-17T05:41:28.402Z,1.97
2018-08-17T05:43:57.359Z,2.63
2018-08-17T05:46:26.499Z,2.97
2018-08-17T05:48:55.480Z,2.40
2018-08-17T05:51:24.596Z,2.60
2018-08-17T05:53:53.643Z,2.83
2018-08-17T05:56:22.722Z,2.37
2018-08-17T05:58:51.787Z,2.70
2018-08-17T06:01:20.847Z,2.80
2018-08-17T06:03:49.817Z,2.33
2018-08-17T06:06:18.860Z,2.90
2018-08-17T06:08:48.063Z,2.33
2018-08-17T06:11:17.297Z,2.67
2018-08-17T06:13:46.343Z,2.13
2018-08-17T06:16:15.436Z,2.53
2018-08-17T06:18:44.495Z,2.40
2018-08-17T06:21:13.631Z,3.00
2018-08-17T06:23:42.751Z,2.70
2018-08-17T06:26:11.815Z,2.70
2018-08-17T06:28:40.920Z,3.63
2018-08-17T06:31:09.990Z,2.67
2018-08-17T06:33:39.120Z,2.80
2018-08-17T06:36:08.217Z,2.43
2018-08-17T06:38:37.543Z,2.97
2018-08-17T06:41:06.612Z,2.93
2018-08-17T06:43:35.725Z,3.00
2018-08-17T06:46:04.912Z,3.00
2018-08-17T06:48:34.000Z,3.27
2018-08-17T06:51:03.124Z,2.87
2018-08-17T06:53:32.258Z,2.80
2018-08-17T06:56:01.383Z,2.73
2018-08-17T06:58:30.364Z,2.83
2018-08-17T07:00:59.508Z,2.40
2018-08-17T07:03:28.475Z,2.90
2018-08-17T07:05:57.749Z,2.67
2018-08-17T07:08:26.876Z,2.50
2018-08-17T07:10:55.871Z,2.70
2018-08-17T07:13:24.940Z,2.80
2018-08-17T07:15:53.994Z,2.50
2018-08-17T07:18:23.042Z,2.80
2018-08-17T07:20:52.359Z,2.80
2018-08-17T07:23:21.444Z,2.50
2018-08-17T07:25:50.532Z,2.97
2018-08-17T07:28:19.626Z,2.53
2018-08-17T07:30:48.949Z,2.60
2018-08-17T07:33:18.072Z,2.57
2018-08-17T07:35:47.184Z,3.20
2018-08-17T07:38:16.428Z,2.30
2018-08-17T07:40:45.517Z,2.90
2018-08-17T07:43:14.651Z,2.80
2018-08-17T07:45:43.633Z,2.03
2018-08-17T07:48:12.896Z,1.93
2018-08-17T07:50:42.013Z,2.30
2018-08-17T07:53:11.169Z,2.33
2018-08-17T07:55:40.303Z,2.40
2018-08-17T07:58:09.475Z,4.03
2018-08-17T08:00:38.596Z,3.53
2018-08-17T08:03:07.787Z,2.90
2018-08-17T08:05:36.861Z,2.13
2018-08-17T08:08:06.108Z,2.30
2018-08-17T08:10:35.146Z,2.70
2018-08-17T08:13:04.278Z,2.60
2018-08-17T08:15:33.371Z,2.30
2018-08-17T08:18:02.429Z,2.40
2018-08-17T08:20:34.047Z,2.27
2018-08-17T08:23:14.927Z,2.83
2018-08-17T08:25:44.020Z,2.90
2018-08-17T08:28:13.220Z,2.03
2018-08-17T08:30:42.378Z,2.10
2018-08-17T08:33:11.907Z,2.27
2018-08-17T08:35:41.050Z,2.30
2018-08-17T08:38:10.120Z,2.57
2018-08-17T08:40:39.305Z,2.47
2018-08-17T08:43:08.763Z,3.10
2018-08-17T08:45:38.041Z,2.70
2018-08-17T08:48:07.959Z,2.97
2018-08-17T08:50:37.342Z,3.00
2018-08-17T08:53:07.086Z,3.03
2018-08-17T08:55:36.162Z,2.70
2018-08-17T08:58:05.523Z,3.50
2018-08-17T09:00:34.724Z,2.87
2018-08-17T09:03:03.873Z,3.17
2018-08-17T09:05:32.919Z,2.83
2018-08-17T09:08:02.069Z,2.63
2018-08-17T09:10:31.121Z,2.47
2018-08-17T09:13:00.303Z,2.37
2018-08-17T09:15:29.432Z,2.10
2018-08-17T09:17:58.508Z,2.33
2018-08-17T09:20:27.647Z,2.43
2018-08-17T09:22:56.886Z,2.77
2018-08-17T09:25:25.994Z,2.40
2018-08-17T09:27:55.138Z,2.17
2018-08-17T09:30:24.205Z,3.37
2018-08-17T09:32:53.380Z,2.03
2018-08-17T09:35:22.488Z,2.07
2018-08-17T09:37:51.554Z,1.80
2018-08-17T09:40:20.522Z,1.77
2018-08-17T09:42:49.639Z,2.73
2018-08-17T09:45:18.683Z,2.67
2018-08-17T09:47:47.846Z,2.47
2018-08-17T09:50:16.963Z,2.60
2018-08-17T09:52:46.042Z,2.27
2018-08-17T09:55:15.159Z,2.20
2018-08-17T09:57:44.366Z,1.90
2018-08-17T10:00:13.552Z,2.67
2018-08-17T10:02:47.964Z,1.77
2018-08-17T10:05:22.576Z,2.47
2018-08-17T10:07:56.992Z,2.10
2018-08-17T10:10:26.249Z,1.90
2018-08-17T10:12:55.400Z,2.43
2018-08-17T10:15:24.496Z,1.70
2018-08-17T10:17:53.587Z,1.70
2018-08-17T10:20:28.196Z,2.13
2018-08-17T10:22:57.289Z,2.03
2018-08-17T10:25:26.776Z,2.20
2018-08-17T10:27:57.247Z,1.50
2018-08-17T10:30:26.625Z,1.77
2018-08-17T10:32:57.779Z,1.90
2018-08-17T10:35:31.035Z,1.57
2018-08-17T10:38:01.547Z,1.47
2018-08-17T10:40:30.847Z,2.00
2018-08-17T10:43:01.223Z,1.63
2018-08-17T10:45:30.649Z,1.50
2018-08-17T10:47:59.803Z,1.40
2018-08-17T10:50:30.117Z,1.53
2018-08-17T10:53:00.403Z,1.60
2018-08-17T10:55:40.959Z,1.47
2018-08-17T10:58:14.865Z,1.40
2018-08-17T11:00:43.961Z,1.30
2018-08-17T11:03:13.059Z,2.10
2018-08-17T11:05:42.251Z,1.37
2018-08-17T11:08:11.306Z,1.77
2018-08-17T11:10:40.435Z,1.50
2018-08-17T11:13:09.539Z,1.33
2018-08-17T11:15:38.651Z,1.60
2018-08-17T11:18:07.796Z,1.50
2018-08-17T11:20:36.916Z,1.23
2018-08-17T11:23:06.040Z,1.60
2018-08-17T11:25:35.115Z,1.30
2018-08-17T11:28:04.189Z,1.43
2018-08-17T11:30:33.323Z,1.40
2018-08-17T11:33:02.410Z,1.20
2018-08-17T11:35:31.499Z,1.43
2018-08-17T11:38:00.828Z,1.40
2018-08-17T11:40:29.930Z,10.60
2018-08-17T11:43:04.634Z,9.37
2018-08-17T11:45:33.736Z,9.97
2018-08-17T11:48:02.822Z,8.70
2018-08-17T11:50:34.611Z,5.03
2018-08-17T11:53:03.724Z,6.83
2018-08-17T11:55:33.891Z,7.57
2018-08-17T11:58:03.321Z,5.87
2018-08-17T12:00:35.036Z,10.57
2018-08-17T12:03:04.260Z,4.83
2018-08-17T12:05:33.352Z,8.33
2018-08-17T12:08:02.442Z,8.00
2018-08-17T12:10:31.820Z,6.67
2018-08-17T12:13:06.407Z,5.67
2018-08-17T12:15:45.924Z,4.50
2018-08-17T12:18:14.987Z,7.47
2018-08-17T12:20:44.068Z,7.00
2018-08-17T12:23:13.140Z,3.90
2018-08-17T12:25:47.671Z,4.17
2018-08-17T12:28:16.908Z,4.57
2018-08-17T12:30:45.987Z,2.00
2018-08-17T12:33:15.087Z,2.53
2018-08-17T12:35:44.237Z,1.80
2018-08-17T12:38:16.387Z,2.40
2018-08-17T12:40:48.826Z,2.13
2018-08-17T12:43:19.175Z,1.87
2018-08-17T12:45:48.264Z,1.50
2018-08-17T12:48:17.691Z,1.70
2018-08-17T12:50:46.998Z,1.50
2018-08-17T12:53:16.330Z,1.30
2018-08-17T12:55:45.400Z,1.37
2018-08-17T12:58:14.939Z,1.37
2018-08-17T13:00:44.245Z,1.40
2018-08-17T13:03:13.317Z,1.50
2018-08-17T13:05:42.379Z,1.40
2018-08-17T13:08:11.475Z,1.60
2018-08-17T13:10:40.632Z,1.93
2018-08-17T13:13:10.945Z,1.53
2018-08-17T13:15:45.467Z,1.70
2018-08-17T13:18:19.855Z,1.40
2018-08-17T13:20:48.945Z,1.07
2018-08-17T13:23:18.028Z,1.33
2018-08-17T13:25:47.099Z,1.20
2018-08-17T13:28:16.240Z,0.90
2018-08-17T13:30:45.469Z,1.20
2018-08-17T13:33:14.611Z,1.23
2018-08-17T13:35:43.816Z,1.27
2018-08-17T13:38:13.120Z,1.03
2018-08-17T13:40:42.206Z,0.87
2018-08-17T13:43:12.459Z,1.00
2018-08-17T13:45:41.535Z,1.03
2018-08-17T13:48:10.589Z,1.00
2018-08-17T13:50:39.722Z,1.00
2018-08-17T13:53:08.931Z,1.23
2018-08-17T13:55:38.083Z,1.00
2018-08-17T13:58:07.223Z,1.40
2018-08-17T14:00:36.327Z,1.07
2018-08-17T14:03:05.602Z,1.10
2018-08-17T14:05:34.847Z,0.90
2018-08-17T14:08:03.907Z,1.07
2018-08-17T14:10:32.970Z,0.93
2018-08-17T14:13:02.099Z,0.60
2018-08-17T14:15:31.245Z,0.57
2018-08-17T14:18:00.464Z,0.80
2018-08-17T14:20:29.535Z,0.63
2018-08-17T14:22:58.589Z,0.70
2018-08-17T14:25:27.908Z,0.60
2018-08-17T14:27:57.088Z,0.53
2018-08-17T14:30:26.260Z,0.40
2018-08-17T14:32:55.391Z,0.40
2018-08-17T14:35:24.488Z,0.57
2018-08-17T14:37:53.755Z,0.60
2018-08-17T14:40:22.844Z,0.63
2018-08-17T14:42:52.152Z,0.73
2018-08-17T14:45:21.320Z,0.60
2018-08-17T14:47:50.307Z,1.00
2018-08-17T14:50:19.398Z,0.80
2018-08-17T14:52:48.534Z,0.87
2018-08-17T14:55:17.761Z,0.80
2018-08-17T14:57:46.852Z,0.53
2018-08-17T15:00:16.080Z,0.73
2018-08-17T15:02:45.246Z,0.50
2018-08-17T15:05:15.453Z,0.70
2018-08-17T15:07:44.585Z,0.80
2018-08-17T15:10:14.752Z,0.63
2018-08-17T15:12:44.152Z,0.67
2018-08-17T15:15:13.621Z,0.60
2018-08-17T15:17:42.813Z,0.60
2018-08-17T15:20:13.070Z,0.67
2018-08-17T15:22:42.828Z,0.70
2018-08-17T15:25:12.023Z,0.70
2018-08-17T15:27:41.170Z,0.50
2018-08-17T15:30:11.413Z,0.80
2018-08-17T15:32:41.537Z,0.70
2018-08-17T15:35:11.423Z,0.90
2018-08-17T15:37:41.085Z,0.80
2018-08-17T15:40:12.005Z,0.60
2018-08-17T15:42:41.505Z,0.80
2018-08-17T15:45:11.135Z,0.70
2018-08-17T15:47:40.355Z,0.70
2018-08-17T15:50:13.796Z,0.83
2018-08-17T15:52:43.397Z,0.90
2018-08-17T15:55:12.687Z,0.93
2018-08-17T15:57:41.932Z,0.70
2018-08-17T16:00:14.114Z,1.10
2018-08-17T16:02:43.201Z,0.80
2018-08-17T16:05:12.315Z,0.60
2018-08-17T16:07:41.412Z,0.87
2018-08-17T16:10:12.912Z,1.00
2018-08-17T16:12:42.046Z,1.20
2018-08-17T16:15:11.395Z,0.83
2018-08-17T16:17:40.491Z,1.30
2018-08-17T16:20:11.191Z,1.13
2018-08-17T16:22:40.671Z,0.80
2018-08-17T16:25:10.546Z,1.00
2018-08-17T16:27:39.858Z,1.13
2018-08-17T16:30:10.628Z,0.93
2018-08-17T16:32:39.716Z,0.70
2018-08-17T16:35:27.108Z,1.00
2018-08-17T16:38:01.562Z,1.17
2018-08-17T16:40:42.307Z,1.40
2018-08-17T16:43:11.446Z,1.03
2018-08-17T16:45:40.689Z,1.10
2018-08-17T16:48:09.848Z,1.20
2018-08-17T16:50:39.048Z,1.03
2018-08-17T16:53:08.296Z,1.10
2018-08-17T16:55:37.672Z,1.47
2018-08-17T16:58:06.756Z,0.90
2018-08-17T17:00:36.013Z,1.30
2018-08-17T17:03:05.243Z,1.23
2018-08-17T17:05:34.317Z,1.00
2018-08-17T17:08:03.299Z,0.80
2018-08-17T17:10:32.393Z,1.07
2018-08-17T17:13:01.601Z,1.40
2018-08-17T17:15:30.694Z,1.27
2018-08-17T17:18:05.184Z,1.00
2018-08-17T17:20:35.107Z,1.10
2018-08-17T17:23:05.731Z,1.10
2018-08-17T17:25:34.862Z,1.57
2018-08-17T17:28:04.001Z,1.33
2018-08-17T17:30:42.240Z,1.57
2018-08-17T17:33:11.635Z,1.20
2018-08-17T17:35:41.872Z,1.23
2018-08-17T17:38:11.384Z,1.00
2018-08-17T17:40:40.888Z,1.13
2018-08-17T17:43:10.165Z,1.37
2018-08-17T17:45:39.676Z,1.20
2018-08-17T17:48:09.236Z,1.20
2018-08-17T17:50:38.308Z,1.10
2018-08-17T17:53:07.481Z,1.20
2018-08-17T17:55:42.987Z,1.40
2018-08-17T17:58:12.374Z,0.90
2018-08-17T18:00:45.853Z,1.10
2018-08-17T18:03:14.982Z,0.87
2018-08-17T18:05:44.034Z,1.07
2018-08-17T18:08:18.037Z,1.17
2018-08-17T18:10:48.103Z,1.03
2018-08-17T18:13:17.246Z,1.30
2018-08-17T18:15:46.405Z,1.13
2018-08-17T18:18:15.480Z,0.80
2018-08-17T18:20:44.582Z,1.17
2018-08-17T18:23:13.678Z,1.30
2018-08-17T18:25:42.864Z,1.03
2018-08-17T18:28:12.062Z,1.23
2018-08-17T18:30:41.184Z,1.03
2018-08-17T18:33:10.721Z,0.97
2018-08-17T18:35:39.702Z,1.10
2018-08-17T18:38:09.000Z,1.00
2018-08-17T18:40:38.296Z,1.17
2018-08-17T18:43:07.446Z,1.00
2018-08-17T18:45:36.516Z,0.97
2018-08-17T18:48:05.572Z,1.37
2018-08-17T18:50:34.667Z,1.07
2018-08-17T18:53:03.822Z,1.40
2018-08-17T18:55:32.908Z,1.40
2018-08-17T18:58:01.967Z,1.30
2018-08-17T19:00:31.331Z,1.20
2018-08-17T19:03:00.443Z,1.17
2018-08-17T19:05:29.526Z,1.20
2018-08-17T19:07:58.902Z,1.10
2018-08-17T19:10:28.605Z,1.27
2018-08-17T19:12:57.846Z,1.10
2018-08-17T19:15:27.281Z,1.13
2018-08-17T19:17:57.358Z,1.50
2018-08-17T19:20:26.444Z,1.07
2018-08-17T19:22:55.507Z,1.20
2018-08-17T19:25:24.651Z,1.40
2018-08-17T19:27:53.735Z,1.50
2018-08-17T19:30:28.088Z,1.87
2018-08-17T19:32:58.825Z,1.57
2018-08-17T19:35:28.156Z,1.60
2018-08-17T19:37:57.299Z,1.70
2018-08-17T19:40:26.514Z,1.50
2018-08-17T19:43:02.166Z,1.67
2018-08-17T19:45:31.222Z,1.47
2018-08-17T19:48:00.461Z,1.60
2018-08-17T19:50:31.343Z,1.50
2018-08-17T19:53:00.496Z,1.53
2018-08-17T19:55:29.762Z,1.63
2018-08-17T19:57:58.866Z,1.30
2018-08-17T20:00:28.057Z,1.60
2018-08-17T20:02:57.195Z,1.53
2018-08-17T20:05:26.343Z,1.27
2018-08-17T20:07:55.482Z,1.57
2018-08-17T20:10:24.658Z,1.70
2018-08-17T20:12:53.960Z,1.47
2018-08-17T20:15:23.073Z,1.73
2018-08-17T20:17:52.883Z,1.80
2018-08-17T20:20:22.063Z,1.77
2018-08-17T20:22:51.451Z,1.50
2018-08-17T20:25:20.560Z,1.50
2018-08-17T20:27:49.672Z,1.60
2018-08-17T20:30:20.143Z,1.87
2018-08-17T20:32:49.321Z,1.87
2018-08-17T20:35:18.556Z,1.83
2018-08-17T20:37:50.037Z,2.00
2018-08-17T20:40:19.404Z,1.83
2018-08-17T20:42:48.728Z,1.30
2018-08-17T20:45:18.303Z,1.63
2018-08-17T20:47:47.452Z,1.90
2018-08-17T20:50:18.804Z,1.43
2018-08-17T20:52:56.417Z,1.40
2018-08-17T20:55:25.534Z,1.30
2018-08-17T20:57:55.684Z,1.50
2018-08-17T21:00:26.611Z,1.30
2018-08-17T21:02:56.067Z,1.47
2018-08-17T21:05:25.161Z,1.20
2018-08-17T21:07:54.365Z,2.03
2018-08-17T21:10:23.488Z,1.80
2018-08-17T21:12:52.584Z,1.63
2018-08-17T21:15:21.742Z,1.70
2018-08-17T21:17:50.948Z,2.60
2018-08-17T21:20:20.036Z,2.23
2018-08-17T21:22:49.050Z,2.37
2018-08-17T21:25:18.141Z,2.60
2018-08-17T21:27:47.432Z,2.73
2018-08-17T21:30:16.645Z,2.43
2018-08-17T21:32:45.934Z,2.50
2018-08-17T21:35:15.707Z,2.87
2018-08-17T21:37:44.813Z,2.83
2018-08-17T21:40:34.477Z,3.10
2018-08-17T21:43:03.596Z,2.83
2018-08-17T21:45:32.615Z,3.20
2018-08-17T21:48:01.685Z,3.33
2018-08-17T21:50:30.980Z,3.77
2018-08-17T21:53:00.062Z,3.63
2018-08-17T21:55:29.192Z,3.63
2018-08-17T21:57:58.370Z,3.80
2018-08-17T22:00:30.629Z,3.50
2018-08-17T22:02:59.804Z,3.30
2018-08-17T22:05:30.160Z,2.53
2018-08-17T22:07:59.567Z,2.73
2018-08-17T22:10:28.734Z,2.90
2018-08-17T22:12:57.894Z,2.87
2018-08-17T22:15:28.761Z,2.43
2018-08-17T22:17:57.950Z,2.13
2018-08-17T22:20:27.128Z,1.97
2018-08-17T22:22:56.630Z,1.63
2018-08-17T22:25:25.810Z,2.70
2018-08-17T22:27:55.204Z,2.13
2018-08-17T22:30:25.491Z,1.60
2018-08-17T22:32:54.623Z,2.03
2018-08-17T22:35:23.800Z,1.70
2018-08-17T22:37:53.045Z,1.80
2018-08-17T22:40:22.215Z,1.87
2018-08-17T22:42:51.600Z,2.00
2018-08-17T22:45:20.692Z,2.40
2018-08-17T22:47:49.836Z,1.63
2018-08-17T22:50:18.948Z,1.77
2018-08-17T22:52:48.020Z,2.47
2018-08-17T22:55:17.135Z,2.00
2018-08-17T22:57:46.223Z,1.70
2018-08-17T23:00:20.034Z,1.83
2018-08-17T23:02:50.147Z,1.67
2018-08-17T23:05:22.465Z,2.00
2018-08-17T23:07:51.636Z,1.83
2018-08-17T23:10:21.874Z,2.20
2018-08-17T23:12:51.924Z,1.70
2018-08-17T23:15:21.048Z,1.43
2018-08-17T23:17:53.293Z,1.87
2018-08-17T23:20:27.630Z,1.70
2018-08-17T23:22:58.004Z,1.93
2018-08-17T23:25:27.150Z,2.10
2018-08-17T23:27:56.203Z,1.83
2018-08-17T23:30:25.282Z,1.60
2018-08-17T23:32:54.439Z,2.10
2018-08-17T23:35:23.523Z,1.80
2018-08-17T23:37:52.722Z,1.87
2018-08-17T23:40:21.835Z,1.77
2018-08-17T23:42:51.015Z,1.80
2018-08-17T23:45:20.137Z,2.20
2018-08-17T23:47:49.133Z,1.53
2018-08-17T23:50:18.215Z,2.23
2018-08-17T23:52:47.301Z,2.63
2018-08-17T23:55:17.507Z,1.87
2018-08-17T23:57:46.691Z,2.00
